New Haven, Missouri
Current Conditions -  °F | °C
As of 12:35 PM on Sunday 23 Nov 2014 (Local Time) from KFYG Reporting Station
Light Rain Light Rain  
Wind Chill: 55°   Ceiling: 900
Heat Index: 55°   Visibility: 2mi
Dew Point: 54°   Wind: 8mph
Humidity: 94%   Direction: 140°SE
Pressure: 29.44"   Gusts: NA
Location:  38.61°N, 91.22°W
Report Text: KFYG 231835Z AUTO 14007KT 2SM -RA BKN009 13/12 A2944 RMK AO2
Loading
Personal Weather Stations






























Interactive Weather Map New forecast layout! Learn more

10-Day Weather Forecast

Advertisements
Track Severe Weather on mobile